Time;durP1;ratioP1;P1;durP2;ratioP2;P2;SDS_P1;SDS_P2;PMS_P1;PMS_P2;Temp;Humidity;BMP_temperature;BMP_pressure;BME280_temperature;BME280_humidity;BME280_pressure;Samples;Min_cycle;Max_cycle;Signal;HPM_P1;HPM_P2
2023/11/09 00:00:08;;;;;;;0.68;0.55;;;;;;;20.95;44.08;100131.03;5027960;28;20034;-73
2023/11/09 00:02:34;;;;;;;0.70;0.70;;;;;;;20.95;44.31;100138.16;5031803;28;20507;-73
2023/11/09 00:05:01;;;;;;;0.88;0.80;;;;;;;20.90;44.30;100130.03;5024324;28;20033;-73
2023/11/09 00:07:28;;;;;;;0.47;0.47;;;;;;;20.91;44.20;100137.78;5028568;28;20077;-73
2023/11/09 00:09:54;;;;;;;0.50;0.50;;;;;;;20.92;44.06;100128.00;5026003;28;20523;-73
2023/11/09 00:12:20;;;;;;;1.23;0.52;;;;;;;20.90;43.97;100122.09;5026075;28;20103;-73
2023/11/09 00:14:48;;;;;;;1.20;0.60;;;;;;;20.80;44.42;100110.06;5027623;28;20025;-73
2023/11/09 00:17:14;;;;;;;0.73;0.68;;;;;;;20.68;44.28;100087.09;5026618;28;20562;-73
2023/11/09 00:19:39;;;;;;;0.57;0.57;;;;;;;20.88;44.19;100110.91;5029834;28;20044;-73
2023/11/09 00:22:05;;;;;;;0.60;0.60;;;;;;;20.87;44.35;100106.63;5023537;28;20552;-73
2023/11/09 00:24:30;;;;;;;0.57;0.57;;;;;;;20.85;44.38;100114.78;5024046;28;20061;-73
2023/11/09 00:26:58;;;;;;;0.65;0.50;;;;;;;20.79;44.33;100100.50;5021409;28;20061;-73
2023/11/09 00:29:23;;;;;;;0.65;0.57;;;;;;;20.85;44.38;100098.09;5025503;28;20522;-73
2023/11/09 00:31:49;;;;;;;0.50;0.50;;;;;;;20.83;44.06;100098.28;5026274;28;20038;-73
2023/11/09 00:34:14;;;;;;;0.47;0.38;;;;;;;20.82;44.38;100091.34;5027481;28;20049;-73
2023/11/09 00:36:40;;;;;;;0.85;0.85;;;;;;;20.82;44.31;100094.00;5028150;28;20041;-73
2023/11/09 00:39:07;;;;;;;0.52;0.52;;;;;;;20.80;44.31;100090.72;5029926;28;20037;-73
2023/11/09 00:41:33;;;;;;;1.23;0.60;;;;;;;20.80;44.14;100090.72;5021776;28;20593;-73
2023/11/09 00:43:59;;;;;;;0.40;0.40;;;;;;;20.71;44.35;100076.91;5029160;28;20069;-73
2023/11/09 00:46:24;;;;;;;0.43;0.43;;;;;;;20.74;44.25;100073.03;5021722;28;20123;-73
2023/11/09 00:48:50;;;;;;;0.60;0.60;;;;;;;20.75;44.36;100078.13;5022685;28;20053;-73
2023/11/09 00:51:18;;;;;;;0.40;0.40;;;;;;;20.76;44.36;100065.72;5022479;28;20077;-72
2023/11/09 00:53:43;;;;;;;0.50;0.50;;;;;;;20.76;44.53;100074.47;5028269;28;20037;-73
2023/11/09 00:56:10;;;;;;;0.52;0.52;;;;;;;20.75;44.27;100074.66;5025221;28;20060;-73
2023/11/09 00:58:36;;;;;;;0.60;0.60;;;;;;;20.75;44.32;100061.44;5037197;28;20033;-73
2023/11/09 01:01:02;;;;;;;0.60;0.60;;;;;;;20.75;44.50;100062.25;5023997;28;20041;-73
2023/11/09 01:03:28;;;;;;;1.20;0.88;;;;;;;20.66;44.35;100047.63;5022308;28;20115;-73
2023/11/09 01:05:55;;;;;;;1.15;0.75;;;;;;;20.66;44.51;100055.53;4994177;28;20050;-73
2023/11/09 01:08:21;;;;;;;0.70;0.70;;;;;;;20.73;44.45;100059.00;5019683;28;20399;-73
2023/11/09 01:10:47;;;;;;;0.93;0.57;;;;;;;20.62;44.44;100037.63;5025968;28;20072;-72
2023/11/09 01:13:13;;;;;;;0.30;0.30;;;;;;;20.68;44.59;100053.50;5021523;28;20156;-72
2023/11/09 01:15:38;;;;;;;0.40;0.40;;;;;;;20.60;44.60;100044.94;5021753;28;20088;-73
2023/11/09 01:18:07;;;;;;;0.75;0.68;;;;;;;20.63;44.53;100041.88;5023944;28;21008;-72
2023/11/09 01:20:35;;;;;;;0.50;0.50;;;;;;;20.65;44.37;100039.88;5028249;28;20098;-73
2023/11/09 01:23:01;;;;;;;0.60;0.60;;;;;;;20.64;44.42;100040.88;5024469;28;20580;-73
2023/11/09 01:25:27;;;;;;;0.30;0.20;;;;;;;20.60;44.61;100034.38;5022523;28;20045;-73
2023/11/09 01:27:52;;;;;;;0.50;0.50;;;;;;;20.64;44.33;100046.97;5022396;28;20926;-72
2023/11/09 01:30:18;;;;;;;0.47;0.47;;;;;;;20.60;44.38;100037.81;5021577;28;20040;-73
2023/11/09 01:32:44;;;;;;;0.20;0.20;;;;;;;20.56;44.50;100036.59;5018578;28;20073;-72
2023/11/09 01:35:10;;;;;;;0.50;0.50;;;;;;;20.65;44.44;100039.88;5017430;28;20037;-73
2023/11/09 01:37:35;;;;;;;0.30;0.30;;;;;;;20.67;44.45;100037.84;5026395;28;20403;-73
2023/11/09 01:40:07;;;;;;;0.50;0.50;;;;;;;20.59;44.60;100025.63;5026295;28;20088;-73
2023/11/09 01:42:32;;;;;;;0.40;0.40;;;;;;;20.60;44.56;100021.94;5019661;28;20032;-73
2023/11/09 01:44:58;;;;;;;0.43;0.43;;;;;;;20.57;44.58;100016.25;5006100;28;20675;-72
2023/11/09 01:47:24;;;;;;;0.50;0.50;;;;;;;20.60;44.42;100021.13;5031170;28;20041;-73
2023/11/09 01:49:51;;;;;;;0.43;0.43;;;;;;;20.57;44.49;100014.44;5017094;28;20033;-73
2023/11/09 01:52:18;;;;;;;0.30;0.30;;;;;;;20.51;44.45;100000.19;5022799;28;20037;-73
2023/11/09 01:54:45;;;;;;;0.82;0.45;;;;;;;20.56;44.64;100006.69;5019215;28;20045;-73
2023/11/09 01:57:12;;;;;;;0.30;0.30;;;;;;;20.61;44.55;100014.81;5009418;28;20635;-73
2023/11/09 01:59:44;;;;;;;1.02;0.50;;;;;;;20.60;44.72;99999.97;5015343;28;20557;-73
2023/11/09 02:02:11;;;;;;;0.40;0.40;;;;;;;20.43;44.55;99981.88;5033164;28;20048;-72
2023/11/09 02:04:37;;;;;;;0.75;0.45;;;;;;;20.47;44.60;99979.66;5023974;28;20037;-73
2023/11/09 02:07:03;;;;;;;0.55;0.55;;;;;;;20.54;44.34;99992.88;5020872;28;20038;-73
2023/11/09 02:09:30;;;;;;;0.70;0.68;;;;;;;20.49;44.55;99978.44;5018736;28;20055;-73
2023/11/09 02:11:56;;;;;;;0.82;0.65;;;;;;;20.50;44.69;99976.59;5020123;28;20065;-73
2023/11/09 02:14:22;;;;;;;0.40;0.40;;;;;;;20.52;44.63;99982.50;5027483;28;20044;-72
2023/11/09 02:16:48;;;;;;;0.50;0.40;;;;;;;20.52;44.69;99979.84;5025722;28;20037;-73
2023/11/09 02:19:18;;;;;;;0.30;0.30;;;;;;;20.57;44.64;99982.69;5022672;28;20043;-73
2023/11/09 02:21:47;;;;;;;0.38;0.38;;;;;;;20.43;44.48;99963.38;5023624;28;20040;-72
2023/11/09 02:24:13;;;;;;;0.30;0.30;;;;;;;20.54;44.60;99975.16;5036125;28;20041;-73
2023/11/09 02:26:40;;;;;;;0.40;0.40;;;;;;;20.43;44.67;99952.78;5029782;28;20056;-73
2023/11/09 02:29:06;;;;;;;0.40;0.40;;;;;;;20.52;44.54;99970.09;5029528;28;20439;-73
2023/11/09 02:31:32;;;;;;;0.65;0.50;;;;;;;20.46;44.58;99954.19;5024209;28;20128;-73
2023/11/09 02:34:02;;;;;;;0.32;0.32;;;;;;;20.54;44.59;99966.41;5021547;28;20034;-73
2023/11/09 02:36:29;;;;;;;0.40;0.40;;;;;;;20.51;44.79;99957.06;5013150;28;20038;-73
2023/11/09 02:38:55;;;;;;;0.38;0.38;;;;;;;20.42;44.67;99945.88;5022132;28;20046;-73
2023/11/09 02:41:20;;;;;;;0.47;0.47;;;;;;;20.40;44.65;99947.88;5005033;28;20095;-72
2023/11/09 02:43:46;;;;;;;1.00;0.40;;;;;;;20.50;44.68;99958.09;5026883;28;20124;-73
2023/11/09 02:46:12;;;;;;;1.17;0.45;;;;;;;20.44;44.73;99943.84;5026728;28;20740;-73
2023/11/09 02:48:38;;;;;;;0.40;0.40;;;;;;;20.41;44.73;99940.78;5017832;28;20124;-73
2023/11/09 02:51:06;;;;;;;0.65;0.57;;;;;;;20.43;44.62;99944.84;5020952;28;20040;-73
2023/11/09 02:53:31;;;;;;;0.65;0.50;;;;;;;20.47;44.77;99945.28;5023157;28;20045;-73
2023/11/09 02:55:57;;;;;;;0.40;0.40;;;;;;;20.36;44.54;99930.81;5023311;28;20057;-73
2023/11/09 02:58:23;;;;;;;0.40;0.35;;;;;;;20.48;44.72;99945.06;5023235;28;20553;-73
2023/11/09 03:00:49;;;;;;;0.75;0.70;;;;;;;20.48;44.76;99936.31;5028826;28;20045;-73
2023/11/09 03:03:15;;;;;;;0.63;0.40;;;;;;;20.39;44.64;99927.75;5021136;28;20136;-73
2023/11/09 03:05:41;;;;;;;0.50;0.50;;;;;;;20.46;44.72;99933.03;5030137;28;20037;-73
2023/11/09 03:08:07;;;;;;;0.50;0.47;;;;;;;20.39;44.71;99919.81;5023861;28;20052;-73
2023/11/09 03:10:32;;;;;;;0.45;0.30;;;;;;;20.43;44.63;99926.34;5022447;28;20033;-73
2023/11/09 03:13:00;;;;;;;0.45;0.45;;;;;;;20.46;44.74;99930.41;5021536;28;20045;-73
2023/11/09 03:15:26;;;;;;;0.43;0.43;;;;;;;20.43;44.72;99921.06;5018118;28;20037;-73
2023/11/09 03:17:52;;;;;;;0.57;0.47;;;;;;;20.44;44.67;99930.59;4991267;28;20044;-73
2023/11/09 03:20:18;;;;;;;0.50;0.30;;;;;;;20.44;44.78;99919.22;5023664;28;20449;-73
2023/11/09 03:22:45;;;;;;;0.50;0.50;;;;;;;20.42;44.75;99910.69;5026260;28;20029;-73
2023/11/09 03:25:11;;;;;;;0.30;0.30;;;;;;;20.42;44.80;99908.84;5028678;28;20125;-73
2023/11/09 03:27:36;;;;;;;0.47;0.40;;;;;;;20.41;44.75;99906.41;5032499;28;20033;-73
2023/11/09 03:30:02;;;;;;;0.50;0.50;;;;;;;20.37;44.88;99898.06;5014802;28;20111;-73
2023/11/09 03:32:28;;;;;;;0.63;0.43;;;;;;;20.40;44.84;99902.94;5018428;28;20056;-73
2023/11/09 03:34:54;;;;;;;0.30;0.30;;;;;;;20.35;45.01;99894.81;5019970;28;20128;-73
2023/11/09 03:37:20;;;;;;;0.32;0.32;;;;;;;20.41;44.81;99896.66;5025365;28;20029;-73
2023/11/09 03:39:45;;;;;;;0.40;0.40;;;;;;;20.40;44.75;99895.00;5031265;28;20095;-73
2023/11/09 03:42:14;;;;;;;0.73;0.40;;;;;;;20.34;44.60;99871.22;5029209;28;20491;-72
2023/11/09 03:44:40;;;;;;;0.40;0.40;;;;;;;20.42;44.80;99892.97;5025575;28;20079;-72
2023/11/09 03:47:06;;;;;;;0.40;0.40;;;;;;;20.43;44.59;99896.44;5026949;28;20055;-73
2023/11/09 03:49:32;;;;;;;0.30;0.30;;;;;;;20.36;44.78;99880.56;5027745;28;20159;-73
2023/11/09 03:51:57;;;;;;;0.32;0.30;;;;;;;20.41;44.75;99887.91;5027364;28;20486;-73
2023/11/09 03:54:23;;;;;;;0.55;0.32;;;;;;;20.35;44.87;99876.28;5026097;28;20116;-73
2023/11/09 03:56:48;;;;;;;0.30;0.30;;;;;;;20.36;44.66;99874.47;5024568;28;20060;-72
2023/11/09 03:59:14;;;;;;;0.40;0.40;;;;;;;20.43;44.64;99876.09;5025455;28;20063;-73
2023/11/09 04:01:39;;;;;;;0.20;0.20;;;;;;;20.43;44.82;99880.56;5027370;28;20755;-73
2023/11/09 04:04:06;;;;;;;0.30;0.28;;;;;;;20.43;44.83;99881.38;5019983;28;20103;-73
2023/11/09 04:06:32;;;;;;;0.30;0.30;;;;;;;20.37;44.92;99866.31;5028359;28;20045;-73
2023/11/09 04:08:58;;;;;;;0.50;0.50;;;;;;;20.41;44.80;99870.22;5023246;28;20083;-73
2023/11/09 04:11:24;;;;;;;0.40;0.32;;;;;;;20.36;44.80;99850.66;5025795;28;20383;-73
2023/11/09 04:13:50;;;;;;;0.25;0.25;;;;;;;20.38;44.71;99861.84;5020876;28;20054;-73
2023/11/09 04:16:15;;;;;;;0.32;0.32;;;;;;;20.38;44.66;99852.09;5026679;28;20119;-72
2023/11/09 04:18:41;;;;;;;0.45;0.30;;;;;;;20.33;44.78;99845.81;5025679;28;20635;-72
2023/11/09 04:21:09;;;;;;;0.30;0.30;;;;;;;20.39;44.68;99861.63;5034177;28;20120;-72
2023/11/09 04:23:37;;;;;;;0.17;0.17;;;;;;;20.44;44.70;99864.50;5019901;28;20048;-72
2023/11/09 04:26:04;;;;;;;0.32;0.32;;;;;;;20.46;44.77;99872.22;5027007;28;20142;-73
2023/11/09 04:28:32;;;;;;;0.30;0.30;;;;;;;20.37;44.65;99852.28;5028819;28;20037;-73
2023/11/09 04:31:00;;;;;;;0.35;0.35;;;;;;;20.40;44.78;99846.59;5023453;28;21335;-72
2023/11/09 04:33:27;;;;;;;0.85;0.55;;;;;;;20.45;44.75;99860.84;5027845;28;20069;-72
2023/11/09 04:35:55;;;;;;;0.30;0.28;;;;;;;20.35;44.73;99844.56;5023491;28;20047;-72
2023/11/09 04:38:23;;;;;;;0.40;0.40;;;;;;;20.45;44.80;99854.72;5015417;28;20048;-73
2023/11/09 04:40:53;;;;;;;0.43;0.32;;;;;;;20.44;44.75;99861.84;5025287;28;20508;-73
2023/11/09 04:43:19;;;;;;;0.13;0.13;;;;;;;20.39;44.77;99855.53;5022320;28;20057;-73
2023/11/09 04:45:45;;;;;;;0.50;0.47;;;;;;;20.46;44.79;99865.09;5018219;28;20050;-73
2023/11/09 04:48:19;;;;;;;0.20;0.20;;;;;;;20.39;44.71;99855.53;5030542;28;20490;-73
2023/11/09 04:50:55;;;;;;;0.38;0.32;;;;;;;20.40;44.92;99862.44;5024452;28;20083;-73
2023/11/09 04:53:30;;;;;;;0.15;0.13;;;;;;;20.43;44.82;99856.78;5026212;28;20388;-73
2023/11/09 04:56:04;;;;;;;0.20;0.20;;;;;;;20.45;44.71;99852.09;5019409;28;20065;-73
2023/11/09 04:58:50;;;;;;;0.20;0.20;;;;;;;20.39;44.83;99844.97;5022849;28;20053;-73
2023/11/09 05:06:49;;;;;;;0.30;0.30;;;;;;;20.42;44.91;99841.94;5021119;28;20127;-73
2023/11/09 05:09:23;;;;;;;;;;;;;;;20.39;44.83;99839.66;5023564;28;20068;-73
2023/11/09 05:11:50;;;;;;;0.30;0.30;;;;;;;20.39;44.81;99852.91;5027524;28;20303;-73
2023/11/09 05:14:16;;;;;;;0.93;0.25;;;;;;;20.33;45.05;99848.44;5023307;28;20127;-73
2023/11/09 05:16:42;;;;;;;0.30;0.30;;;;;;;20.39;44.96;99858.19;5005460;28;20041;-73
2023/11/09 05:19:08;;;;;;;0.00;0.00;;;;;;;20.40;44.77;99855.34;5030150;28;20087;-73
2023/11/09 05:21:34;;;;;;;0.20;0.20;;;;;;;20.22;44.90;99826.06;5025762;28;20036;-73
2023/11/09 05:24:00;;;;;;;0.77;0.25;;;;;;;20.34;44.50;99848.22;5026840;28;20052;-73
2023/11/09 05:26:26;;;;;;;0.22;0.22;;;;;;;20.40;44.94;99857.97;5026186;28;20050;-73
2023/11/09 05:28:53;;;;;;;0.30;0.30;;;;;;;20.37;44.88;99857.59;5022717;28;20048;-73
2023/11/09 05:31:20;;;;;;;0.20;0.20;;;;;;;20.33;44.90;99843.16;5027245;28;20052;-72
2023/11/09 05:33:46;;;;;;;0.22;0.20;;;;;;;20.41;44.84;99864.09;5022019;28;20051;-73
2023/11/09 05:36:11;;;;;;;0.32;0.32;;;;;;;20.39;45.01;99856.34;5023731;28;20037;-73
2023/11/09 05:38:37;;;;;;;0.28;0.28;;;;;;;20.32;44.81;99857.41;5023706;28;20053;-73
2023/11/09 05:41:06;;;;;;;0.30;0.30;;;;;;;20.31;44.87;99864.50;5023554;28;20145;-73
2023/11/09 05:43:33;;;;;;;0.30;0.30;;;;;;;20.34;44.88;99860.63;5012970;28;20051;-72
2023/11/09 05:45:59;;;;;;;0.20;0.20;;;;;;;20.37;44.87;99868.16;5024361;28;20037;-72
2023/11/09 05:48:25;;;;;;;0.40;0.40;;;;;;;20.39;44.91;99872.22;5023620;28;20051;-73
2023/11/09 05:50:51;;;;;;;0.40;0.40;;;;;;;20.26;44.85;99845.78;5018729;28;20048;-73
2023/11/09 05:53:16;;;;;;;0.20;0.20;;;;;;;20.37;44.86;99853.09;5026086;28;20076;-73
2023/11/09 05:55:42;;;;;;;0.20;0.20;;;;;;;20.25;45.01;99846.00;5025421;28;20096;-73
2023/11/09 05:58:08;;;;;;;0.40;0.40;;;;;;;20.30;44.97;99849.66;5023613;28;20056;-73
2023/11/09 06:00:34;;;;;;;0.43;0.38;;;;;;;20.26;44.88;99851.06;5029308;28;20037;-73
2023/11/09 06:03:00;;;;;;;0.22;0.22;;;;;;;20.35;44.72;99865.72;5028385;28;20052;-73
2023/11/09 06:05:26;;;;;;;0.30;0.30;;;;;;;20.35;45.00;99871.00;5028094;28;20037;-73
2023/11/09 06:07:56;;;;;;;0.45;0.30;;;;;;;20.37;44.95;99868.97;5022342;28;20034;-73
2023/11/09 06:10:22;;;;;;;0.30;0.30;;;;;;;20.20;44.88;99846.63;5018401;28;20041;-73
2023/11/09 06:12:48;;;;;;;0.25;0.25;;;;;;;20.33;44.86;99866.94;5023958;28;20426;-73
2023/11/09 06:15:15;;;;;;;0.35;0.20;;;;;;;20.31;44.97;99869.81;5027940;28;20037;-73
2023/11/09 06:17:44;;;;;;;0.38;0.38;;;;;;;20.37;44.86;99876.91;5020676;28;20048;-73
2023/11/09 06:20:16;;;;;;;0.38;0.20;;;;;;;20.37;44.87;99873.44;5026352;28;20546;-73
2023/11/09 06:22:43;;;;;;;0.13;0.10;;;;;;;20.43;44.74;99888.50;5029413;28;20075;-73
2023/11/09 06:25:10;;;;;;;0.30;0.30;;;;;;;20.43;44.71;99893.78;5020977;28;20042;-73
2023/11/09 06:27:36;;;;;;;0.47;0.43;;;;;;;20.42;44.95;99895.63;5029008;28;20034;-73
2023/11/09 06:30:04;;;;;;;0.20;0.20;;;;;;;20.40;44.84;99894.19;5020767;28;20107;-73
2023/11/09 06:32:30;;;;;;;0.45;0.30;;;;;;;20.43;44.90;99894.59;5026121;28;20134;-73
2023/11/09 06:34:57;;;;;;;0.25;0.25;;;;;;;20.34;44.65;99892.38;5025657;28;20068;-73
2023/11/09 06:37:23;;;;;;;0.40;0.40;;;;;;;20.40;44.69;99897.63;5023702;28;21829;-73
2023/11/09 06:39:49;;;;;;;0.30;0.30;;;;;;;20.44;44.90;99908.63;5026555;28;20044;-73
2023/11/09 06:42:18;;;;;;;0.20;0.20;;;;;;;20.39;44.90;99905.78;5022036;28;20041;-73
2023/11/09 06:44:44;;;;;;;0.20;0.17;;;;;;;20.40;44.83;99912.69;5025712;28;20380;-73
2023/11/09 06:47:10;;;;;;;1.00;0.43;;;;;;;20.36;45.09;99904.38;5017926;28;20053;-73
2023/11/09 06:49:37;;;;;;;0.10;0.10;;;;;;;20.37;44.80;99924.50;5015728;28;20030;-73
2023/11/09 06:52:05;;;;;;;0.32;0.32;;;;;;;20.43;44.98;99934.28;5025938;28;20041;-73
2023/11/09 06:54:32;;;;;;;0.20;0.20;;;;;;;20.45;44.93;99931.41;5020215;28;20043;-73
2023/11/09 06:57:02;;;;;;;0.20;0.20;;;;;;;20.44;44.90;99921.88;5028485;28;20142;-73
2023/11/09 06:59:28;;;;;;;0.28;0.28;;;;;;;20.46;44.90;99930.41;5017318;28;20589;-73
2023/11/09 07:01:53;;;;;;;0.20;0.20;;;;;;;20.44;44.97;99935.91;5015388;28;20045;-72
2023/11/09 07:04:19;;;;;;;0.60;0.35;;;;;;;20.43;45.01;99931.63;5024431;28;20037;-73
2023/11/09 07:06:45;;;;;;;0.50;0.30;;;;;;;20.43;44.94;99938.75;5021595;28;20977;-73
2023/11/09 07:09:12;;;;;;;0.85;0.38;;;;;;;20.37;44.87;99942.19;5024099;28;20042;-73
2023/11/09 07:11:38;;;;;;;0.45;0.30;;;;;;;20.45;44.80;99945.47;5017935;28;20037;-73
2023/11/09 07:14:04;;;;;;;0.50;0.40;;;;;;;20.44;44.79;99948.31;5025106;28;20075;-73
2023/11/09 07:16:30;;;;;;;0.13;0.13;;;;;;;20.43;44.74;99949.31;5023193;28;20456;-73
2023/11/09 07:18:56;;;;;;;0.30;0.30;;;;;;;20.64;44.69;99967.63;5023725;28;20076;-72
2023/11/09 07:21:22;;;;;;;0.43;0.43;;;;;;;21.00;44.04;99976.91;5027290;28;20439;-73
2023/11/09 07:23:50;;;;;;;1.30;0.70;;;;;;;21.64;42.73;99962.84;5031337;28;20040;-73
2023/11/09 07:26:15;;;;;;;0.45;0.30;;;;;;;21.87;42.36;99965.75;5021739;28;20065;-73
2023/11/09 07:28:41;;;;;;;0.90;0.50;;;;;;;21.83;42.77;99977.00;5021223;28;20045;-73
2023/11/09 07:31:07;;;;;;;0.73;0.43;;;;;;;21.71;42.97;99980.31;5027767;28;20056;-73
2023/11/09 07:33:33;;;;;;;0.20;0.20;;;;;;;21.56;42.92;99979.00;5021720;28;22004;-73
2023/11/09 07:35:59;;;;;;;1.30;0.47;;;;;;;21.45;43.50;99977.00;5020134;28;20040;-73
2023/11/09 07:38:26;;;;;;;0.20;0.20;;;;;;;21.29;43.81;99968.50;5034776;28;20611;-73
2023/11/09 07:40:52;;;;;;;0.30;0.30;;;;;;;21.25;43.83;99983.19;5020963;28;20037;-73
2023/11/09 07:43:21;;;;;;;0.52;0.22;;;;;;;21.24;44.08;99980.72;5029457;28;20044;-73
2023/11/09 07:45:47;;;;;;;0.17;0.17;;;;;;;21.19;44.03;99981.38;5024714;28;20136;-73
2023/11/09 07:48:13;;;;;;;1.10;0.50;;;;;;;21.13;44.27;99983.00;5026377;28;20042;-73
2023/11/09 07:50:38;;;;;;;0.40;0.40;;;;;;;21.11;44.23;99982.38;5024756;28;20388;-73
2023/11/09 07:53:04;;;;;;;0.57;0.30;;;;;;;21.05;44.30;99980.56;5028765;28;21277;-73
2023/11/09 07:55:31;;;;;;;0.80;0.40;;;;;;;21.01;44.53;99979.38;5019306;28;20208;-73
2023/11/09 07:58:04;;;;;;;0.52;0.32;;;;;;;20.97;44.45;99977.31;5023830;28;20484;-73
2023/11/09 08:00:30;;;;;;;0.60;0.60;;;;;;;20.99;44.55;99986.69;5025985;28;20526;-73
2023/11/09 08:02:58;;;;;;;0.52;0.50;;;;;;;21.06;44.69;100002.56;5023130;28;20033;-73
2023/11/09 08:05:24;;;;;;;1.40;0.63;;;;;;;21.00;44.59;100004.19;5028889;28;20565;-73
2023/11/09 08:07:51;;;;;;;0.63;0.50;;;;;;;20.95;44.67;100004.00;5024751;28;20119;-73
2023/11/09 08:10:18;;;;;;;0.63;0.47;;;;;;;21.01;44.44;100023.56;5021666;28;20051;-73
2023/11/09 08:12:43;;;;;;;0.47;0.40;;;;;;;21.02;44.52;100031.28;5022323;28;20041;-73
2023/11/09 08:15:13;;;;;;;0.47;0.47;;;;;;;20.94;44.53;100026.19;5025702;28;20069;-73
2023/11/09 08:17:41;;;;;;;0.95;0.70;;;;;;;20.96;44.46;100020.69;5016798;28;20037;-73
2023/11/09 08:20:09;;;;;;;0.50;0.45;;;;;;;21.01;44.61;100026.22;5028835;28;20045;-73
2023/11/09 08:22:37;;;;;;;0.50;0.50;;;;;;;20.98;44.44;100019.47;5017177;28;20038;-73
2023/11/09 08:25:03;;;;;;;1.42;0.50;;;;;;;20.99;44.59;100021.09;5022077;28;20505;-73
2023/11/09 08:27:30;;;;;;;1.42;0.85;;;;;;;20.98;44.62;100016.00;5024934;28;20056;-73
2023/11/09 08:29:57;;;;;;;0.40;0.40;;;;;;;20.97;44.32;100019.69;5022664;28;20049;-73
2023/11/09 08:32:25;;;;;;;1.35;0.73;;;;;;;20.95;44.47;100025.19;5026203;28;20085;-74
2023/11/09 08:34:52;;;;;;;0.70;0.60;;;;;;;20.89;44.44;100014.63;5022629;28;20041;-74
2023/11/09 08:37:18;;;;;;;2.80;0.93;;;;;;;20.74;44.56;99998.97;5028680;28;20395;-73
2023/11/09 08:39:45;;;;;;;1.23;0.77;;;;;;;20.94;44.58;100030.69;5030415;28;20042;-74
2023/11/09 08:42:10;;;;;;;0.93;0.75;;;;;;;20.92;44.57;100030.88;5025854;28;20044;-73
2023/11/09 08:44:36;;;;;;;0.90;0.57;;;;;;;20.93;44.87;100037.81;5029129;28;20682;-73
2023/11/09 08:47:02;;;;;;;1.70;0.70;;;;;;;20.90;44.43;100024.19;5030912;28;20049;-73
2023/11/09 08:49:28;;;;;;;0.63;0.60;;;;;;;20.72;44.60;100003.63;5025115;28;20057;-73
2023/11/09 08:51:53;;;;;;;1.02;0.55;;;;;;;20.91;44.80;100028.44;5021430;28;20395;-74
2023/11/09 08:54:19;;;;;;;1.58;0.93;;;;;;;20.89;44.63;100027.84;5018116;28;20037;-73
2023/11/09 08:56:46;;;;;;;1.52;0.70;;;;;;;20.91;44.46;100021.31;5025753;28;20049;-73
2023/11/09 08:59:12;;;;;;;1.10;0.70;;;;;;;20.90;44.66;100025.00;5025421;28;20056;-73
2023/11/09 09:01:37;;;;;;;1.75;0.68;;;;;;;20.89;44.58;100019.91;5023195;28;20104;-73
2023/11/09 09:04:03;;;;;;;0.40;0.40;;;;;;;20.92;44.51;100027.44;5025446;28;20052;-74
2023/11/09 09:06:30;;;;;;;1.95;0.82;;;;;;;20.84;44.52;100017.06;5026315;28;20505;-73
2023/11/09 09:08:56;;;;;;;1.75;0.80;;;;;;;20.82;44.25;100001.38;5014952;28;20034;-71
2023/11/09 09:11:22;;;;;;;0.90;0.50;;;;;;;21.03;44.01;100024.97;5022034;28;20722;-71
2023/11/09 09:13:47;;;;;;;1.80;0.60;;;;;;;21.05;44.00;100024.78;5023895;28;20038;-71
2023/11/09 09:16:15;;;;;;;1.02;0.60;;;;;;;21.05;44.39;100022.13;5021951;28;20070;-72
2023/11/09 09:18:42;;;;;;;1.95;0.80;;;;;;;21.05;44.09;100022.94;5031665;28;20039;-71
2023/11/09 09:21:08;;;;;;;1.67;0.60;;;;;;;21.05;44.50;100020.28;5030908;28;20048;-72
2023/11/09 09:23:36;;;;;;;1.00;0.52;;;;;;;21.01;44.07;100013.78;5021526;28;20037;-72
2023/11/09 09:26:03;;;;;;;2.53;0.68;;;;;;;21.01;44.33;100012.97;5020442;28;20068;-72
2023/11/09 09:28:29;;;;;;;0.93;0.57;;;;;;;21.06;44.08;100027.19;5024743;28;20115;-72
2023/11/09 09:30:54;;;;;;;1.17;0.90;;;;;;;21.02;44.24;100026.00;5020750;28;20041;-72
2023/11/09 09:33:20;;;;;;;0.70;0.40;;;;;;;21.05;44.40;100030.88;5026900;28;20041;-71
2023/11/09 09:35:47;;;;;;;1.92;0.82;;;;;;;21.07;44.15;100022.72;5026486;28;20048;-72
2023/11/09 09:38:15;;;;;;;1.65;1.05;;;;;;;21.04;44.47;100026.59;5025887;28;20049;-71
2023/11/09 09:40:41;;;;;;;2.90;1.13;;;;;;;20.95;44.55;100008.47;5018639;28;20452;-69
2023/11/09 09:43:08;;;;;;;1.95;0.73;;;;;;;20.99;44.36;100012.34;5033129;28;20103;-70
2023/11/09 09:45:34;;;;;;;1.38;0.82;;;;;;;21.06;44.25;100027.19;5014886;28;20534;-71
2023/11/09 09:48:01;;;;;;;2.50;0.77;;;;;;;21.05;44.25;100024.78;5021505;28;20041;-72
2023/11/09 09:50:37;;;;;;;1.67;0.73;;;;;;;21.04;44.42;100026.59;5021154;28;20100;-71
2023/11/09 09:53:10;;;;;;;3.33;0.88;;;;;;;21.01;44.42;100027.03;5025300;28;20124;-72
2023/11/09 09:55:36;;;;;;;2.10;0.60;;;;;;;20.98;44.29;100026.59;5026963;28;20079;-72
2023/11/09 09:58:05;;;;;;;1.38;0.70;;;;;;;21.05;44.15;100038.00;5023846;28;20236;-72
2023/11/09 10:00:31;;;;;;;0.75;0.52;;;;;;;21.01;44.30;100039.44;5020852;28;20037;-70
2023/11/09 10:03:06;;;;;;;0.77;0.55;;;;;;;21.03;44.53;100043.50;5022132;28;20090;-69
2023/11/09 10:05:36;;;;;;;1.10;0.98;;;;;;;20.99;44.06;100029.03;5017902;28;20126;-71
2023/11/09 10:08:04;;;;;;;;;;;;;;;21.08;44.16;100053.47;5020711;28;20125;-72
2023/11/09 10:10:34;;;;;;;2.15;0.98;;;;;;;21.10;44.37;100049.59;5050949;28;20011;-72
2023/11/09 10:13:02;;;;;;;1.67;0.68;;;;;;;21.18;44.01;100045.09;5019615;28;20033;-72
2023/11/09 10:15:29;;;;;;;1.50;0.80;;;;;;;21.21;44.05;100047.34;5021829;28;20045;-71
2023/11/09 10:17:56;;;;;;;0.98;0.88;;;;;;;21.15;44.09;100037.56;5020836;28;20033;-70
2023/11/09 10:20:21;;;;;;;2.30;0.90;;;;;;;21.24;43.96;100047.75;5022597;28;20395;-70
2023/11/09 10:22:48;;;;;;;2.47;1.05;;;;;;;21.23;44.25;100048.75;5021371;28;20049;-71
2023/11/09 10:25:17;;;;;;;0.65;0.63;;;;;;;21.22;44.38;100047.13;5019785;28;20116;-70
2023/11/09 10:27:42;;;;;;;1.02;0.73;;;;;;;21.23;44.31;100050.59;5021171;28;20095;-70
2023/11/09 10:30:09;;;;;;;4.20;0.90;;;;;;;21.17;44.10;100043.47;5018683;28;20272;-70
2023/11/09 10:32:36;;;;;;;0.68;0.68;;;;;;;21.13;44.14;100033.28;5019456;28;20159;-71
2023/11/09 10:35:05;;;;;;;2.10;0.98;;;;;;;21.18;44.22;100045.91;5011107;28;20037;-72
2023/11/09 10:37:33;;;;;;;1.70;0.70;;;;;;;21.20;44.22;100043.06;5022692;28;20034;-71
2023/11/09 10:40:04;;;;;;;1.80;0.90;;;;;;;21.17;44.37;100043.47;5017095;28;20124;-71
2023/11/09 10:42:30;;;;;;;1.58;1.00;;;;;;;21.17;44.46;100033.69;5021266;28;20373;-70
2023/11/09 10:45:02;;;;;;;1.85;0.90;;;;;;;21.18;44.23;100037.13;5022300;28;20518;-70
2023/11/09 10:47:35;;;;;;;1.10;0.90;;;;;;;21.14;44.41;100042.03;5010261;28;20057;-71
2023/11/09 10:50:13;;;;;;;1.90;0.93;;;;;;;21.17;44.51;100043.47;5027330;28;20115;-71
2023/11/09 10:52:41;;;;;;;1.75;0.93;;;;;;;21.05;44.26;100025.56;5020763;28;20613;-72
2023/11/09 10:55:09;;;;;;;1.70;1.00;;;;;;;21.17;44.24;100035.50;5018941;28;20088;-72
2023/11/09 10:57:40;;;;;;;1.52;0.93;;;;;;;21.12;44.25;100022.91;5021918;28;20090;-72
2023/11/09 11:00:10;;;;;;;2.60;0.85;;;;;;;21.12;44.46;100023.72;5024985;28;20490;-72
2023/11/09 11:02:47;;;;;;;1.48;0.90;;;;;;;21.08;44.26;100024.34;5027267;28;20084;-72
2023/11/09 11:05:14;;;;;;;1.67;1.20;;;;;;;21.16;44.30;100039.19;5017558;28;20048;-72
2023/11/09 11:07:43;;;;;;;1.70;0.90;;;;;;;21.07;44.42;100022.72;5022565;28;20118;-72
2023/11/09 11:10:16;;;;;;;1.67;0.93;;;;;;;20.97;44.21;100004.59;5014723;28;20045;-72
2023/11/09 11:12:43;;;;;;;2.00;0.90;;;;;;;21.11;44.20;100024.75;5021146;28;20045;-70
2023/11/09 11:15:14;;;;;;;1.38;0.80;;;;;;;21.15;44.24;100027.78;5017758;28;20438;-71
2023/11/09 11:17:43;;;;;;;1.30;0.82;;;;;;;21.13;44.30;100027.19;5019545;28;20419;-71
2023/11/09 11:20:28;;;;;;;1.05;0.95;;;;;;;21.12;44.46;100025.56;5020572;28;20091;-70
2023/11/09 11:23:28;;;;;;;1.67;1.10;;;;;;;21.13;44.48;100021.88;5016221;28;20048;-70
2023/11/09 11:26:10;;;;;;;2.40;0.88;;;;;;;21.01;44.21;100005.03;5017373;28;20053;-70
2023/11/09 11:28:40;;;;;;;1.95;0.80;;;;;;;21.07;44.39;100009.50;5015374;28;20475;-70
2023/11/09 11:31:10;;;;;;;1.45;0.77;;;;;;;21.04;44.18;99996.66;5018003;28;20052;-70
2023/11/09 11:33:39;;;;;;;1.17;0.90;;;;;;;21.12;44.37;100014.97;5013449;28;20037;-71